sensor_id;sensor_type;location;lat;lon;timestamp;temperature;humidity
6538;DHT22;3302;52.508;13.454;2023-03-14T00:01:57;12.30;99.90
6538;DHT22;3302;52.508;13.454;2023-03-14T00:04:23;12.40;99.90
6538;DHT22;3302;52.508;13.454;2023-03-14T00:06:48;12.30;99.90
6538;DHT22;3302;52.508;13.454;2023-03-14T00:09:16;12.30;99.90
6538;DHT22;3302;52.508;13.454;2023-03-14T00:11:42;12.20;99.90
6538;DHT22;3302;52.508;13.454;2023-03-14T00:14:07;12.20;99.90
6538;DHT22;3302;52.508;13.454;2023-03-14T00:16:33;12.20;99.90
6538;DHT22;3302;52.508;13.454;2023-03-14T00:18:59;12.10;99.90
6538;DHT22;3302;52.508;13.454;2023-03-14T00:21:25;12.10;99.90
6538;DHT22;3302;52.508;13.454;2023-03-14T00:23:51;12.10;99.90
6538;DHT22;3302;52.508;13.454;2023-03-14T00:26:19;12.00;99.90
6538;DHT22;3302;52.508;13.454;2023-03-14T00:28:45;12.00;99.90
6538;DHT22;3302;52.508;13.454;2023-03-14T00:31:14;12.00;99.90
6538;DHT22;3302;52.508;13.454;2023-03-14T00:33:41;11.90;99.90
6538;DHT22;3302;52.508;13.454;2023-03-14T00:36:10;11.90;99.90
6538;DHT22;3302;52.508;13.454;2023-03-14T00:38:37;11.90;99.90
6538;DHT22;3302;52.508;13.454;2023-03-14T00:41:06;11.90;99.90
6538;DHT22;3302;52.508;13.454;2023-03-14T00:43:32;11.90;99.90
6538;DHT22;3302;52.508;13.454;2023-03-14T00:45:58;11.80;99.90
6538;DHT22;3302;52.508;13.454;2023-03-14T00:48:24;11.70;99.90
6538;DHT22;3302;52.508;13.454;2023-03-14T00:50:50;11.70;99.90
6538;DHT22;3302;52.508;13.454;2023-03-14T00:53:16;11.70;99.90
6538;DHT22;3302;52.508;13.454;2023-03-14T00:55:43;11.70;99.90
6538;DHT22;3302;52.508;13.454;2023-03-14T00:58:11;11.70;99.90
6538;DHT22;3302;52.508;13.454;2023-03-14T01:00:37;11.60;99.90
6538;DHT22;3302;52.508;13.454;2023-03-14T01:03:03;11.60;99.90
6538;DHT22;3302;52.508;13.454;2023-03-14T01:05:30;11.60;99.90
6538;DHT22;3302;52.508;13.454;2023-03-14T01:07:56;11.60;99.90
6538;DHT22;3302;52.508;13.454;2023-03-14T01:10:22;11.50;99.90
6538;DHT22;3302;52.508;13.454;2023-03-14T01:12:48;11.50;99.90
6538;DHT22;3302;52.508;13.454;2023-03-14T01:15:14;11.50;99.90
6538;DHT22;3302;52.508;13.454;2023-03-14T01:17:40;11.40;99.90
6538;DHT22;3302;52.508;13.454;2023-03-14T01:20:08;11.40;99.90
6538;DHT22;3302;52.508;13.454;2023-03-14T01:22:36;11.40;99.90
6538;DHT22;3302;52.508;13.454;2023-03-14T01:25:04;11.40;99.90
6538;DHT22;3302;52.508;13.454;2023-03-14T01:27:30;11.40;99.90
6538;DHT22;3302;52.508;13.454;2023-03-14T01:29:56;11.40;99.90
6538;DHT22;3302;52.508;13.454;2023-03-14T01:32:22;11.40;99.90
6538;DHT22;3302;52.508;13.454;2023-03-14T01:34:49;11.40;99.90
6538;DHT22;3302;52.508;13.454;2023-03-14T01:37:15;11.40;99.90
6538;DHT22;3302;52.508;13.454;2023-03-14T01:39:40;11.40;99.90
6538;DHT22;3302;52.508;13.454;2023-03-14T01:42:06;11.40;99.90
6538;DHT22;3302;52.508;13.454;2023-03-14T01:47:19;11.50;99.90
6538;DHT22;3302;52.508;13.454;2023-03-14T01:49:48;11.40;99.90
6538;DHT22;3302;52.508;13.454;2023-03-14T01:52:25;11.50;99.90
6538;DHT22;3302;52.508;13.454;2023-03-14T01:55:06;11.50;99.90
6538;DHT22;3302;52.508;13.454;2023-03-14T01:57:41;11.50;99.90
6538;DHT22;3302;52.508;13.454;2023-03-14T02:00:13;11.50;99.90
6538;DHT22;3302;52.508;13.454;2023-03-14T02:02:45;11.50;99.90
6538;DHT22;3302;52.508;13.454;2023-03-14T02:05:15;11.50;99.90
6538;DHT22;3302;52.508;13.454;2023-03-14T02:07:52;11.50;99.90
6538;DHT22;3302;52.508;13.454;2023-03-14T02:10:21;11.40;99.90
6538;DHT22;3302;52.508;13.454;2023-03-14T02:12:49;11.40;99.90
6538;DHT22;3302;52.508;13.454;2023-03-14T02:15:16;11.40;99.90
6538;DHT22;3302;52.508;13.454;2023-03-14T02:17:43;11.30;99.90
6538;DHT22;3302;52.508;13.454;2023-03-14T02:22:38;11.30;99.90
6538;DHT22;3302;52.508;13.454;2023-03-14T02:25:34;11.30;99.90
6538;DHT22;3302;52.508;13.454;2023-03-14T02:28:02;11.20;99.90
6538;DHT22;3302;52.508;13.454;2023-03-14T02:30:30;11.20;99.90
6538;DHT22;3302;52.508;13.454;2023-03-14T02:33:10;11.20;99.90
6538;DHT22;3302;52.508;13.454;2023-03-14T02:35:41;11.20;99.90
6538;DHT22;3302;52.508;13.454;2023-03-14T02:40:40;11.30;99.90
6538;DHT22;3302;52.508;13.454;2023-03-14T02:43:06;11.20;99.90
6538;DHT22;3302;52.508;13.454;2023-03-14T02:45:42;11.20;99.90
6538;DHT22;3302;52.508;13.454;2023-03-14T02:48:18;11.20;99.90
6538;DHT22;3302;52.508;13.454;2023-03-14T02:50:46;11.20;99.90
6538;DHT22;3302;52.508;13.454;2023-03-14T02:53:17;11.20;99.90
6538;DHT22;3302;52.508;13.454;2023-03-14T02:55:45;11.20;99.90
6538;DHT22;3302;52.508;13.454;2023-03-14T02:58:12;11.20;99.90
6538;DHT22;3302;52.508;13.454;2023-03-14T03:00:38;11.20;99.90
6538;DHT22;3302;52.508;13.454;2023-03-14T03:03:04;11.20;99.90
6538;DHT22;3302;52.508;13.454;2023-03-14T03:05:31;11.20;99.90
6538;DHT22;3302;52.508;13.454;2023-03-14T03:07:57;11.20;99.90
6538;DHT22;3302;52.508;13.454;2023-03-14T03:10:23;11.20;99.90
6538;DHT22;3302;52.508;13.454;2023-03-14T03:12:49;11.20;99.90
6538;DHT22;3302;52.508;13.454;2023-03-14T03:15:17;11.20;99.90
6538;DHT22;3302;52.508;13.454;2023-03-14T03:17:43;11.10;99.90
6538;DHT22;3302;52.508;13.454;2023-03-14T03:20:09;11.10;99.90
6538;DHT22;3302;52.508;13.454;2023-03-14T03:22:36;11.10;99.90
6538;DHT22;3302;52.508;13.454;2023-03-14T03:25:03;11.10;99.90
6538;DHT22;3302;52.508;13.454;2023-03-14T03:30:51;11.10;99.90
6538;DHT22;3302;52.508;13.454;2023-03-14T03:33:17;11.10;99.90
6538;DHT22;3302;52.508;13.454;2023-03-14T03:35:45;11.00;99.90
6538;DHT22;3302;52.508;13.454;2023-03-14T03:38:11;11.10;99.90
6538;DHT22;3302;52.508;13.454;2023-03-14T03:40:38;11.00;99.90
6538;DHT22;3302;52.508;13.454;2023-03-14T03:43:04;11.00;99.90
6538;DHT22;3302;52.508;13.454;2023-03-14T03:45:30;11.00;99.90
6538;DHT22;3302;52.508;13.454;2023-03-14T03:47:56;11.00;99.90
6538;DHT22;3302;52.508;13.454;2023-03-14T03:50:22;11.00;99.90
6538;DHT22;3302;52.508;13.454;2023-03-14T03:52:47;11.00;99.90
6538;DHT22;3302;52.508;13.454;2023-03-14T03:55:13;11.00;99.90
6538;DHT22;3302;52.508;13.454;2023-03-14T03:57:39;11.00;99.90
6538;DHT22;3302;52.508;13.454;2023-03-14T04:00:06;10.90;99.90
6538;DHT22;3302;52.508;13.454;2023-03-14T04:02:34;11.00;99.90
6538;DHT22;3302;52.508;13.454;2023-03-14T04:05:00;10.90;99.90
6538;DHT22;3302;52.508;13.454;2023-03-14T04:07:26;10.90;99.90
6538;DHT22;3302;52.508;13.454;2023-03-14T04:09:52;10.90;99.90
6538;DHT22;3302;52.508;13.454;2023-03-14T04:12:17;10.90;99.90
6538;DHT22;3302;52.508;13.454;2023-03-14T04:14:43;10.90;99.90
6538;DHT22;3302;52.508;13.454;2023-03-14T04:17:10;10.90;99.90
6538;DHT22;3302;52.508;13.454;2023-03-14T04:19:36;10.90;99.90
6538;DHT22;3302;52.508;13.454;2023-03-14T04:22:02;10.90;99.90
6538;DHT22;3302;52.508;13.454;2023-03-14T04:24:27;10.90;99.90
6538;DHT22;3302;52.508;13.454;2023-03-14T04:26:53;10.90;99.90
6538;DHT22;3302;52.508;13.454;2023-03-14T04:29:19;10.90;99.90
6538;DHT22;3302;52.508;13.454;2023-03-14T04:31:45;10.90;99.90
6538;DHT22;3302;52.508;13.454;2023-03-14T04:34:11;10.90;99.90
6538;DHT22;3302;52.508;13.454;2023-03-14T04:36:37;10.90;99.90
6538;DHT22;3302;52.508;13.454;2023-03-14T04:39:02;10.90;99.90
6538;DHT22;3302;52.508;13.454;2023-03-14T04:41:29;10.90;99.90
6538;DHT22;3302;52.508;13.454;2023-03-14T04:43:55;10.90;99.90
6538;DHT22;3302;52.508;13.454;2023-03-14T04:46:21;10.90;99.90
6538;DHT22;3302;52.508;13.454;2023-03-14T04:48:47;10.90;99.90
6538;DHT22;3302;52.508;13.454;2023-03-14T04:51:13;10.90;99.90
6538;DHT22;3302;52.508;13.454;2023-03-14T04:53:39;10.90;99.90
6538;DHT22;3302;52.508;13.454;2023-03-14T04:56:06;10.90;99.90
6538;DHT22;3302;52.508;13.454;2023-03-14T04:58:31;10.90;99.90
6538;DHT22;3302;52.508;13.454;2023-03-14T05:01:04;10.90;99.90
6538;DHT22;3302;52.508;13.454;2023-03-14T05:03:30;10.80;99.90
6538;DHT22;3302;52.508;13.454;2023-03-14T05:05:56;10.90;99.90
6538;DHT22;3302;52.508;13.454;2023-03-14T05:08:24;10.90;99.90
6538;DHT22;3302;52.508;13.454;2023-03-14T05:10:54;10.90;99.90
6538;DHT22;3302;52.508;13.454;2023-03-14T05:13:20;10.90;99.90
6538;DHT22;3302;52.508;13.454;2023-03-14T05:15:46;10.90;99.90
6538;DHT22;3302;52.508;13.454;2023-03-14T05:18:13;10.90;99.90
6538;DHT22;3302;52.508;13.454;2023-03-14T05:20:39;10.90;99.90
6538;DHT22;3302;52.508;13.454;2023-03-14T05:23:05;10.90;99.90
6538;DHT22;3302;52.508;13.454;2023-03-14T05:25:30;10.90;99.90
6538;DHT22;3302;52.508;13.454;2023-03-14T05:27:56;10.90;99.90
6538;DHT22;3302;52.508;13.454;2023-03-14T05:30:22;10.90;99.90
6538;DHT22;3302;52.508;13.454;2023-03-14T05:32:48;10.80;99.90
6538;DHT22;3302;52.508;13.454;2023-03-14T05:35:14;10.90;99.90
6538;DHT22;3302;52.508;13.454;2023-03-14T05:37:40;10.90;99.90
6538;DHT22;3302;52.508;13.454;2023-03-14T05:40:06;10.90;99.90
6538;DHT22;3302;52.508;13.454;2023-03-14T05:42:33;10.90;99.90
6538;DHT22;3302;52.508;13.454;2023-03-14T05:44:58;10.90;99.90
6538;DHT22;3302;52.508;13.454;2023-03-14T05:47:24;10.90;99.90
6538;DHT22;3302;52.508;13.454;2023-03-14T05:49:50;10.90;99.90
6538;DHT22;3302;52.508;13.454;2023-03-14T05:52:16;10.90;99.90
6538;DHT22;3302;52.508;13.454;2023-03-14T05:54:42;10.90;99.90
6538;DHT22;3302;52.508;13.454;2023-03-14T05:57:08;10.90;99.90
6538;DHT22;3302;52.508;13.454;2023-03-14T05:59:34;10.90;99.90
6538;DHT22;3302;52.508;13.454;2023-03-14T06:02:00;10.90;99.90
6538;DHT22;3302;52.508;13.454;2023-03-14T06:04:25;10.90;99.90
6538;DHT22;3302;52.508;13.454;2023-03-14T06:06:51;10.90;99.90
6538;DHT22;3302;52.508;13.454;2023-03-14T06:09:17;10.90;99.80
6538;DHT22;3302;52.508;13.454;2023-03-14T06:11:45;10.90;99.60
6538;DHT22;3302;52.508;13.454;2023-03-14T06:14:12;10.90;99.50
6538;DHT22;3302;52.508;13.454;2023-03-14T06:16:37;10.90;99.40
6538;DHT22;3302;52.508;13.454;2023-03-14T06:19:03;11.00;99.30
6538;DHT22;3302;52.508;13.454;2023-03-14T06:21:29;11.00;99.30
6538;DHT22;3302;52.508;13.454;2023-03-14T06:23:55;11.00;99.20
6538;DHT22;3302;52.508;13.454;2023-03-14T06:26:21;11.00;99.00
6538;DHT22;3302;52.508;13.454;2023-03-14T06:28:48;11.10;98.90
6538;DHT22;3302;52.508;13.454;2023-03-14T06:31:14;11.00;98.70
6538;DHT22;3302;52.508;13.454;2023-03-14T06:33:40;11.10;98.80
6538;DHT22;3302;52.508;13.454;2023-03-14T06:36:06;11.00;98.80
6538;DHT22;3302;52.508;13.454;2023-03-14T06:38:32;11.00;98.80
6538;DHT22;3302;52.508;13.454;2023-03-14T06:41:05;11.00;98.70
6538;DHT22;3302;52.508;13.454;2023-03-14T06:43:31;11.10;98.70
6538;DHT22;3302;52.508;13.454;2023-03-14T06:45:57;11.00;98.60
6538;DHT22;3302;52.508;13.454;2023-03-14T06:48:23;11.10;98.50
6538;DHT22;3302;52.508;13.454;2023-03-14T06:50:49;11.20;98.30
6538;DHT22;3302;52.508;13.454;2023-03-14T06:53:15;11.20;98.00
6538;DHT22;3302;52.508;13.454;2023-03-14T06:55:40;11.20;97.90
6538;DHT22;3302;52.508;13.454;2023-03-14T06:58:06;11.20;97.90
6538;DHT22;3302;52.508;13.454;2023-03-14T07:00:34;11.30;97.80
6538;DHT22;3302;52.508;13.454;2023-03-14T07:03:01;11.30;97.70
6538;DHT22;3302;52.508;13.454;2023-03-14T07:05:26;11.30;97.60
6538;DHT22;3302;52.508;13.454;2023-03-14T07:07:52;11.40;97.50
6538;DHT22;3302;52.508;13.454;2023-03-14T07:10:18;11.40;97.40
6538;DHT22;3302;52.508;13.454;2023-03-14T07:12:44;11.40;97.40
6538;DHT22;3302;52.508;13.454;2023-03-14T07:15:11;11.40;97.50
6538;DHT22;3302;52.508;13.454;2023-03-14T07:17:36;11.40;97.40
6538;DHT22;3302;52.508;13.454;2023-03-14T07:20:03;11.40;97.50
6538;DHT22;3302;52.508;13.454;2023-03-14T07:22:30;11.40;97.50
6538;DHT22;3302;52.508;13.454;2023-03-14T07:24:56;11.40;97.50
6538;DHT22;3302;52.508;13.454;2023-03-14T07:27:22;11.40;97.50
6538;DHT22;3302;52.508;13.454;2023-03-14T07:29:48;11.40;97.50
6538;DHT22;3302;52.508;13.454;2023-03-14T07:32:14;11.40;97.50
6538;DHT22;3302;52.508;13.454;2023-03-14T07:34:43;11.40;97.40
6538;DHT22;3302;52.508;13.454;2023-03-14T07:37:09;11.50;97.30
6538;DHT22;3302;52.508;13.454;2023-03-14T07:39:35;11.50;97.30
6538;DHT22;3302;52.508;13.454;2023-03-14T07:42:01;11.50;97.40
6538;DHT22;3302;52.508;13.454;2023-03-14T07:44:27;11.50;97.20
6538;DHT22;3302;52.508;13.454;2023-03-14T07:46:53;11.50;97.10
6538;DHT22;3302;52.508;13.454;2023-03-14T07:49:19;11.50;97.10
6538;DHT22;3302;52.508;13.454;2023-03-14T07:51:48;11.50;97.20
6538;DHT22;3302;52.508;13.454;2023-03-14T07:54:13;11.50;97.20
6538;DHT22;3302;52.508;13.454;2023-03-14T07:56:39;11.50;97.20
6538;DHT22;3302;52.508;13.454;2023-03-14T07:59:05;11.50;97.20
6538;DHT22;3302;52.508;13.454;2023-03-14T08:01:31;11.50;97.50
6538;DHT22;3302;52.508;13.454;2023-03-14T08:03:57;11.50;97.10
6538;DHT22;3302;52.508;13.454;2023-03-14T08:06:22;11.50;97.10
6538;DHT22;3302;52.508;13.454;2023-03-14T08:08:48;11.60;97.10
6538;DHT22;3302;52.508;13.454;2023-03-14T08:11:14;11.50;97.10
6538;DHT22;3302;52.508;13.454;2023-03-14T08:13:40;11.60;97.00
6538;DHT22;3302;52.508;13.454;2023-03-14T08:16:06;11.60;97.10
6538;DHT22;3302;52.508;13.454;2023-03-14T08:18:32;11.70;97.00
6538;DHT22;3302;52.508;13.454;2023-03-14T08:20:58;11.70;97.00
6538;DHT22;3302;52.508;13.454;2023-03-14T08:23:24;11.70;96.90
6538;DHT22;3302;52.508;13.454;2023-03-14T08:25:51;11.70;96.80
6538;DHT22;3302;52.508;13.454;2023-03-14T08:28:17;11.80;96.70
6538;DHT22;3302;52.508;13.454;2023-03-14T08:30:43;11.80;96.70
6538;DHT22;3302;52.508;13.454;2023-03-14T08:33:09;11.80;96.70
6538;DHT22;3302;52.508;13.454;2023-03-14T08:35:37;11.80;96.50
6538;DHT22;3302;52.508;13.454;2023-03-14T08:38:03;11.80;96.20
6538;DHT22;3302;52.508;13.454;2023-03-14T08:40:29;11.90;96.40
6538;DHT22;3302;52.508;13.454;2023-03-14T08:42:55;11.90;96.50
6538;DHT22;3302;52.508;13.454;2023-03-14T08:45:21;12.00;96.30
6538;DHT22;3302;52.508;13.454;2023-03-14T08:47:47;11.90;96.30
6538;DHT22;3302;52.508;13.454;2023-03-14T08:50:13;12.00;96.20
6538;DHT22;3302;52.508;13.454;2023-03-14T08:52:39;12.00;96.10
6538;DHT22;3302;52.508;13.454;2023-03-14T08:55:07;12.00;96.10
6538;DHT22;3302;52.508;13.454;2023-03-14T08:57:33;11.90;96.10
6538;DHT22;3302;52.508;13.454;2023-03-14T08:59:59;12.00;96.00
6538;DHT22;3302;52.508;13.454;2023-03-14T09:02:25;12.00;95.90
6538;DHT22;3302;52.508;13.454;2023-03-14T09:04:51;12.00;96.10
6538;DHT22;3302;52.508;13.454;2023-03-14T09:07:18;12.00;95.80
6538;DHT22;3302;52.508;13.454;2023-03-14T09:09:44;12.00;95.80
6538;DHT22;3302;52.508;13.454;2023-03-14T09:12:11;12.10;95.80
6538;DHT22;3302;52.508;13.454;2023-03-14T09:14:37;12.10;95.70
6538;DHT22;3302;52.508;13.454;2023-03-14T09:17:03;12.10;95.60
6538;DHT22;3302;52.508;13.454;2023-03-14T09:19:30;12.30;95.50
6538;DHT22;3302;52.508;13.454;2023-03-14T09:21:56;12.50;95.40
6538;DHT22;3302;52.508;13.454;2023-03-14T09:24:21;12.60;94.90
6538;DHT22;3302;52.508;13.454;2023-03-14T09:26:47;12.70;94.70
6538;DHT22;3302;52.508;13.454;2023-03-14T09:29:13;12.80;94.10
6538;DHT22;3302;52.508;13.454;2023-03-14T09:31:39;12.90;93.70
6538;DHT22;3302;52.508;13.454;2023-03-14T09:34:05;13.00;93.70
6538;DHT22;3302;52.508;13.454;2023-03-14T09:36:31;13.00;93.30
6538;DHT22;3302;52.508;13.454;2023-03-14T09:38:57;13.20;92.90
6538;DHT22;3302;52.508;13.454;2023-03-14T09:41:33;13.30;92.80
6538;DHT22;3302;52.508;13.454;2023-03-14T09:47:05;13.50;92.20
6538;DHT22;3302;52.508;13.454;2023-03-14T09:49:34;13.50;91.80
6538;DHT22;3302;52.508;13.454;2023-03-14T09:52:02;13.20;92.00
6538;DHT22;3302;52.508;13.454;2023-03-14T09:54:42;13.30;92.00
6538;DHT22;3302;52.508;13.454;2023-03-14T09:57:13;13.00;92.00
6538;DHT22;3302;52.508;13.454;2023-03-14T09:59:43;13.00;92.60
6538;DHT22;3302;52.508;13.454;2023-03-14T10:02:24;13.00;92.20
6538;DHT22;3302;52.508;13.454;2023-03-14T10:04:52;13.00;92.10
6538;DHT22;3302;52.508;13.454;2023-03-14T10:09:51;13.00;91.60
6538;DHT22;3302;52.508;13.454;2023-03-14T10:12:18;12.90;91.50
6538;DHT22;3302;52.508;13.454;2023-03-14T10:14:47;12.90;91.60
6538;DHT22;3302;52.508;13.454;2023-03-14T10:17:14;13.00;91.50
6538;DHT22;3302;52.508;13.454;2023-03-14T10:19:56;13.00;91.50
6538;DHT22;3302;52.508;13.454;2023-03-14T10:22:25;12.90;91.10
6538;DHT22;3302;52.508;13.454;2023-03-14T10:24:54;12.90;91.00
6538;DHT22;3302;52.508;13.454;2023-03-14T10:27:27;12.90;90.90
6538;DHT22;3302;52.508;13.454;2023-03-14T10:29:56;13.00;90.90
6538;DHT22;3302;52.508;13.454;2023-03-14T10:32:37;13.00;90.80
6538;DHT22;3302;52.508;13.454;2023-03-14T10:37:32;13.00;90.20
6538;DHT22;3302;52.508;13.454;2023-03-14T10:40:02;13.00;90.60
6538;DHT22;3302;52.508;13.454;2023-03-14T10:42:39;13.00;90.00
6538;DHT22;3302;52.508;13.454;2023-03-14T10:47:49;13.00;90.40
6538;DHT22;3302;52.508;13.454;2023-03-14T10:50:31;13.00;90.00
6538;DHT22;3302;52.508;13.454;2023-03-14T10:53:02;13.00;89.70
6538;DHT22;3302;52.508;13.454;2023-03-14T10:55:42;13.00;89.50
6538;DHT22;3302;52.508;13.454;2023-03-14T10:58:26;13.00;89.50
6538;DHT22;3302;52.508;13.454;2023-03-14T11:07:10;13.00;89.90
6538;DHT22;3302;52.508;13.454;2023-03-14T11:12:32;13.00;89.70
6538;DHT22;3302;52.508;13.454;2023-03-14T11:21:08;13.10;89.60
6538;DHT22;3302;52.508;13.454;2023-03-14T11:32:12;13.10;90.00
6538;DHT22;3302;52.508;13.454;2023-03-14T11:34:52;13.10;90.00
6538;DHT22;3302;52.508;13.454;2023-03-14T11:37:47;13.10;90.20
6538;DHT22;3302;52.508;13.454;2023-03-14T11:40:22;13.00;90.40
6538;DHT22;3302;52.508;13.454;2023-03-14T11:45:38;13.00;90.60
6538;DHT22;3302;52.508;13.454;2023-03-14T11:48:20;13.00;90.70
6538;DHT22;3302;52.508;13.454;2023-03-14T11:50:52;13.00;90.90
6538;DHT22;3302;52.508;13.454;2023-03-14T11:56:02;12.80;92.20
6538;DHT22;3302;52.508;13.454;2023-03-14T11:58:34;12.80;92.30
6538;DHT22;3302;52.508;13.454;2023-03-14T12:01:08;12.80;92.30
6538;DHT22;3302;52.508;13.454;2023-03-14T12:03:45;12.80;92.20
6538;DHT22;3302;52.508;13.454;2023-03-14T12:06:35;12.90;92.40
6538;DHT22;3302;52.508;13.454;2023-03-14T12:09:05;12.90;92.60
6538;DHT22;3302;52.508;13.454;2023-03-14T12:14:30;12.70;93.00
6538;DHT22;3302;52.508;13.454;2023-03-14T12:17:04;12.80;93.10
6538;DHT22;3302;52.508;13.454;2023-03-14T12:19:32;12.80;93.20
6538;DHT22;3302;52.508;13.454;2023-03-14T12:22:06;12.90;93.00
6538;DHT22;3302;52.508;13.454;2023-03-14T12:24:36;12.80;93.20
6538;DHT22;3302;52.508;13.454;2023-03-14T12:27:04;12.90;93.40
6538;DHT22;3302;52.508;13.454;2023-03-14T12:29:30;12.80;93.60
6538;DHT22;3302;52.508;13.454;2023-03-14T12:32:07;12.80;93.70
6538;DHT22;3302;52.508;13.454;2023-03-14T12:34:38;12.90;93.70
6538;DHT22;3302;52.508;13.454;2023-03-14T12:39:43;12.90;93.60
6538;DHT22;3302;52.508;13.454;2023-03-14T12:45:30;12.90;93.90
6538;DHT22;3302;52.508;13.454;2023-03-14T12:48:11;12.90;94.60
6538;DHT22;3302;52.508;13.454;2023-03-14T12:51:17;12.90;95.10
6538;DHT22;3302;52.508;13.454;2023-03-14T12:53:58;12.90;95.00
6538;DHT22;3302;52.508;13.454;2023-03-14T12:56:45;13.00;95.10
6538;DHT22;3302;52.508;13.454;2023-03-14T12:59:34;13.00;94.80
6538;DHT22;3302;52.508;13.454;2023-03-14T13:07:33;13.00;94.20
6538;DHT22;3302;52.508;13.454;2023-03-14T13:12:43;12.80;96.40
6538;DHT22;3302;52.508;13.454;2023-03-14T13:15:18;12.70;97.10
6538;DHT22;3302;52.508;13.454;2023-03-14T13:17:46;12.60;97.30
6538;DHT22;3302;52.508;13.454;2023-03-14T13:20:38;12.60;98.20
6538;DHT22;3302;52.508;13.454;2023-03-14T13:23:03;12.40;99.30
6538;DHT22;3302;52.508;13.454;2023-03-14T13:25:33;12.20;99.90
6538;DHT22;3302;52.508;13.454;2023-03-14T13:28:01;11.90;99.90
6538;DHT22;3302;52.508;13.454;2023-03-14T13:30:35;11.90;99.90
6538;DHT22;3302;52.508;13.454;2023-03-14T13:33:03;11.80;99.90
6538;DHT22;3302;52.508;13.454;2023-03-14T13:35:38;11.90;99.90
6538;DHT22;3302;52.508;13.454;2023-03-14T13:38:04;12.00;99.90
6538;DHT22;3302;52.508;13.454;2023-03-14T13:40:33;12.20;99.90
6538;DHT22;3302;52.508;13.454;2023-03-14T13:48:28;12.40;99.90
6538;DHT22;3302;52.508;13.454;2023-03-14T13:51:03;12.50;99.90
6538;DHT22;3302;52.508;13.454;2023-03-14T13:53:30;12.70;99.90
6538;DHT22;3302;52.508;13.454;2023-03-14T13:55:56;12.70;99.90
6538;DHT22;3302;52.508;13.454;2023-03-14T13:58:28;12.80;99.90
6538;DHT22;3302;52.508;13.454;2023-03-14T14:03:53;13.10;98.40
6538;DHT22;3302;52.508;13.454;2023-03-14T14:06:32;13.20;97.80
6538;DHT22;3302;52.508;13.454;2023-03-14T14:09:03;13.00;96.70
6538;DHT22;3302;52.508;13.454;2023-03-14T14:14:36;13.00;97.40
6538;DHT22;3302;52.508;13.454;2023-03-14T14:17:10;13.10;97.00
6538;DHT22;3302;52.508;13.454;2023-03-14T14:19:38;13.00;97.10
6538;DHT22;3302;52.508;13.454;2023-03-14T14:22:05;13.00;97.20
6538;DHT22;3302;52.508;13.454;2023-03-14T14:24:33;13.10;97.20
6538;DHT22;3302;52.508;13.454;2023-03-14T14:29:40;13.30;96.30
6538;DHT22;3302;52.508;13.454;2023-03-14T14:32:13;13.40;96.60
6538;DHT22;3302;52.508;13.454;2023-03-14T14:35:06;13.50;96.50
6538;DHT22;3302;52.508;13.454;2023-03-14T14:37:34;13.40;96.50
6538;DHT22;3302;52.508;13.454;2023-03-14T14:40:26;13.30;96.00
6538;DHT22;3302;52.508;13.454;2023-03-14T14:42:53;13.30;96.00
6538;DHT22;3302;52.508;13.454;2023-03-14T14:45:21;13.40;95.90
6538;DHT22;3302;52.508;13.454;2023-03-14T14:48:02;13.40;95.30
6538;DHT22;3302;52.508;13.454;2023-03-14T14:50:30;13.40;94.90
6538;DHT22;3302;52.508;13.454;2023-03-14T14:52:59;13.40;94.10
6538;DHT22;3302;52.508;13.454;2023-03-14T14:55:43;13.40;94.10
6538;DHT22;3302;52.508;13.454;2023-03-14T14:58:20;13.40;94.00
6538;DHT22;3302;52.508;13.454;2023-03-14T15:03:30;13.40;93.80
6538;DHT22;3302;52.508;13.454;2023-03-14T15:05:57;13.40;93.50
6538;DHT22;3302;52.508;13.454;2023-03-14T15:08:24;13.40;93.90
6538;DHT22;3302;52.508;13.454;2023-03-14T15:10:51;13.30;93.90
6538;DHT22;3302;52.508;13.454;2023-03-14T15:13:16;13.30;94.40
6538;DHT22;3302;52.508;13.454;2023-03-14T15:15:42;13.20;94.40
6538;DHT22;3302;52.508;13.454;2023-03-14T15:18:14;13.20;94.50
6538;DHT22;3302;52.508;13.454;2023-03-14T15:20:42;13.10;94.70
6538;DHT22;3302;52.508;13.454;2023-03-14T15:23:13;13.20;94.80
6538;DHT22;3302;52.508;13.454;2023-03-14T15:25:39;12.80;99.90
6538;DHT22;3302;52.508;13.454;2023-03-14T15:28:18;8.20;99.90
6538;DHT22;3302;52.508;13.454;2023-03-14T15:30:50;8.00;99.90
6538;DHT22;3302;52.508;13.454;2023-03-14T15:33:17;7.10;99.90
6538;DHT22;3302;52.508;13.454;2023-03-14T15:35:43;6.70;99.90
6538;DHT22;3302;52.508;13.454;2023-03-14T15:38:14;6.60;99.90
6538;DHT22;3302;52.508;13.454;2023-03-14T15:40:41;6.40;99.90
6538;DHT22;3302;52.508;13.454;2023-03-14T15:43:07;6.30;99.90
6538;DHT22;3302;52.508;13.454;2023-03-14T15:45:33;6.30;99.90
6538;DHT22;3302;52.508;13.454;2023-03-14T15:47:59;6.10;99.90
6538;DHT22;3302;52.508;13.454;2023-03-14T15:50:25;5.80;99.90
6538;DHT22;3302;52.508;13.454;2023-03-14T15:52:51;5.60;99.90
6538;DHT22;3302;52.508;13.454;2023-03-14T15:55:17;5.40;99.90
6538;DHT22;3302;52.508;13.454;2023-03-14T15:57:44;5.40;99.90
6538;DHT22;3302;52.508;13.454;2023-03-14T16:00:16;4.60;99.90
6538;DHT22;3302;52.508;13.454;2023-03-14T16:02:44;4.30;99.90
6538;DHT22;3302;52.508;13.454;2023-03-14T16:05:11;4.50;99.90
6538;DHT22;3302;52.508;13.454;2023-03-14T16:07:38;4.20;99.90
6538;DHT22;3302;52.508;13.454;2023-03-14T16:10:04;3.70;99.90
6538;DHT22;3302;52.508;13.454;2023-03-14T16:12:32;3.50;99.90
6538;DHT22;3302;52.508;13.454;2023-03-14T16:14:58;3.30;99.90
6538;DHT22;3302;52.508;13.454;2023-03-14T16:17:24;3.30;99.90
6538;DHT22;3302;52.508;13.454;2023-03-14T16:19:50;2.90;99.90
6538;DHT22;3302;52.508;13.454;2023-03-14T16:22:16;2.80;99.90
6538;DHT22;3302;52.508;13.454;2023-03-14T16:24:41;2.60;99.90
6538;DHT22;3302;52.508;13.454;2023-03-14T16:27:07;2.60;99.90
6538;DHT22;3302;52.508;13.454;2023-03-14T16:29:33;2.60;99.90
6538;DHT22;3302;52.508;13.454;2023-03-14T16:31:59;2.60;99.90
6538;DHT22;3302;52.508;13.454;2023-03-14T16:34:25;2.50;99.90
6538;DHT22;3302;52.508;13.454;2023-03-14T16:36:51;2.50;99.90
6538;DHT22;3302;52.508;13.454;2023-03-14T16:39:17;2.50;99.90
6538;DHT22;3302;52.508;13.454;2023-03-14T16:41:44;2.40;99.90
6538;DHT22;3302;52.508;13.454;2023-03-14T16:44:10;2.40;99.90
6538;DHT22;3302;52.508;13.454;2023-03-14T16:46:35;2.50;99.90
6538;DHT22;3302;52.508;13.454;2023-03-14T16:49:03;2.60;99.90
6538;DHT22;3302;52.508;13.454;2023-03-14T16:51:29;2.70;99.90
6538;DHT22;3302;52.508;13.454;2023-03-14T16:53:55;2.60;99.90
6538;DHT22;3302;52.508;13.454;2023-03-14T16:56:21;2.70;99.90
6538;DHT22;3302;52.508;13.454;2023-03-14T16:58:48;2.60;99.90
6538;DHT22;3302;52.508;13.454;2023-03-14T17:01:16;2.70;99.90
6538;DHT22;3302;52.508;13.454;2023-03-14T17:03:49;2.50;99.90
6538;DHT22;3302;52.508;13.454;2023-03-14T17:06:18;2.60;99.90
6538;DHT22;3302;52.508;13.454;2023-03-14T17:08:44;2.60;99.90
6538;DHT22;3302;52.508;13.454;2023-03-14T17:11:10;2.50;99.90
6538;DHT22;3302;52.508;13.454;2023-03-14T17:13:37;2.60;99.90
6538;DHT22;3302;52.508;13.454;2023-03-14T17:16:03;2.60;99.90
6538;DHT22;3302;52.508;13.454;2023-03-14T17:18:30;2.70;99.90
6538;DHT22;3302;52.508;13.454;2023-03-14T17:20:57;2.60;99.90